CPV2 weather

Orangeville / Castlewood Field
Orangeville, Ontario, Canada

Public forecast

Using degrees Celsius for public forecast. Weather courtesy of forecast.io.

METAR (pilot weather report)

Closest report is CFB Borden, 21.5 nm (39.8 km) NNE. Retrieved 2019/05/25 03:00 UTC (1 hour ago):

CYBN 250300Z AUTO 14004KT 9SM FEW043 12/11 A3009 RMK SLP192

TAF (pilot weather forecast)

Forecast is more than 6 hours old.

Closest forecast is CFB Borden, 21.5 nm (39.8 km) NNE. Retrieved 2019/05/24 18:33 UTC (10 hours ago):

TAF TAF CYBN 241730Z 2418/2506 36010KT P6SM FEW020 BKN240 TEMPO 2418/2506 BKN020 OVC240 BECMG 2422/2424 VRB03KT RMK FCST BASED ON AUTO OBS. NXT FCST BY 250000Z